Home > Products > Valid Products > MTR

000
SAUS45 KGGW 190249
MTRJDN
METAR KJDN 190248Z AUTO 28006KT 00/M03 A2991 RMK AO1 SLP165
T00001028 50000





000
SAUS45 KGGW 190149
MTRJDN
METAR KJDN 190148Z AUTO 28005KT 00/M03 A2991 RMK AO1 SLP165
T00001028





000
SAUS45 KGGW 190149
MTRJDN
METAR KJDN 190148Z AUTO 28005KT 00/M03 A2991 RMK AO1 SLP165
T00001028





000
SAUS45 KGGW 190049
MTRJDN
METAR KJDN 190048Z AUTO 27003KT M01/M03 A2991 RMK AO1 SLP163
T10061033





000
SAUS45 KGGW 182349
MTRJDN
METAR KJDN 182348Z AUTO 30005KT 00/M03 A2990 RMK AO1 SLP161
T00001033 10072 20000 53006





000
SAUS45 KGGW 182249
MTRJDN
METAR KJDN 182248Z AUTO 26005KT 04/M02 A2990 RMK AO1 SLP153
T00391022





000
SAUS45 KGGW 182149
MTRJDN
METAR KJDN 182148Z AUTO 24005KT 07/M03 A2989 RMK AO1 SLP146
T00671028





000
SAUS45 KGGW 182049
MTRJDN
METAR KJDN 182048Z AUTO 24009KT 07/M03 A2989 RMK AO1 SLP144
T00671033 56014





000
SAUS45 KGGW 181949
MTRJDN
METAR KJDN 181948Z AUTO 27006KT 07/M03 A2989 RMK AO1 SLP148
T00671033





000
SAUS45 KGGW 181849
MTRJDN
METAR KJDN 181848Z AUTO 26008KT 05/M03 A2991 RMK AO1 SLP156
T00501033





000
SAUS45 KGGW 181749
MTRJDN
METAR KJDN 181748Z AUTO 27006KT 02/M03 A2993 RMK AO1 SLP166
T00171028 10017 21089 58001





000
SAUS45 KGGW 181649
MTRJDN
METAR KJDN 181648Z AUTO 29004KT M03/M05 A2994 RMK AO1 SLP173
T10331050





000
SAUS45 KGGW 181549
MTRJDN
METAR KJDN 181548Z AUTO 27003KT M07/M08 A2994 RMK AO1 SLP177
T10671083





000
SAUS45 KGGW 181449
MTRJDN
METAR KJDN 181448Z AUTO 27003KT M08/M09 A2993 RMK AO1 SLP177
T10831094 53003





000
SAUS45 KGGW 181349
MTRJDN
METAR KJDN 181348Z AUTO 00000KT M08/M09 A2993 RMK AO1 SLP177
T10831094





000
SAUS45 KGGW 181349
MTRJDN
METAR KJDN 181348Z AUTO 00000KT M08/M09 A2993 RMK AO1 SLP177
T10831094





000
SAUS45 KGGW 181249
MTRJDN
METAR KJDN 181248Z AUTO 00000KT M07/M08 A2992 RMK AO1 SLP170
T10671083





000
SAUS45 KGGW 181249
MTRJDN
METAR KJDN 181248Z AUTO 00000KT M07/M08 A2992 RMK AO1 SLP170
T10671083





000
SAUS45 KGGW 181149
MTRJDN
METAR KJDN 181148Z AUTO 12003KT M04/M06 A2992 RMK AO1 SLP171
T10441056 11028 21044 58001





000
SAUS45 KGGW 181149
MTRJDN
METAR KJDN 181148Z AUTO 12003KT M04/M06 A2992 RMK AO1 SLP171
T10441056 11028 21044 58001





000
SAUS45 KGGW 181050
MTRJDN
METAR KJDN 181048Z AUTO 00000KT M03/M04 A2993 RMK AO1 SLP171
T10331044





000
SAUS45 KGGW 181050
MTRJDN
METAR KJDN 181048Z AUTO 00000KT M03/M04 A2993 RMK AO1 SLP171
T10331044





000
SAUS45 KGGW 180949
MTRJDN
METAR KJDN 180948Z AUTO 10003KT M03/M04 A2992 RMK AO1 SLP169
T10331044





000
SAUS45 KGGW 180849
MTRJDN
METAR KJDN 180848Z AUTO 06003KT M03/M04 A2993 RMK AO1 SLP169
T10281044 58004





000
SAUS45 KGGW 180849
MTRJDN
METAR KJDN 180848Z AUTO 06003KT M03/M04 A2993 RMK AO1 SLP169
T10281044 58004





000
SAUS45 KGGW 180749
MTRJDN
METAR KJDN 180748Z AUTO 00000KT M03/M04 A2993 RMK AO1 SLP173
T10331044





000
SAUS45 KGGW 180749
MTRJDN
METAR KJDN 180748Z AUTO 00000KT M03/M04 A2993 RMK AO1 SLP173
T10331044





000
SAUS45 KGGW 180649
MTRJDN
METAR KJDN 180648Z AUTO 00000KT M03/M05 A2995 RMK AO1 SLP178
T10331050 410221067





000
SAUS45 KGGW 180550
MTRJDN
METAR KJDN 180548Z AUTO 11004KT M03/M05 A2994 RMK AO1 SLP174
T10281050 11028 21033 58002





000
SAUS45 KGGW 180449
MTRJDN
METAR KJDN 180448Z AUTO 10003KT M03/M05 A2994 RMK AO1 SLP175
T10281050





000
SAUS45 KGGW 180349
MTRJDN
METAR KJDN 180348Z AUTO 00000KT M03/M05 A2994 RMK AO1 SLP178
T10281050





000
SAUS45 KGGW 180349
MTRJDN
METAR KJDN 180348Z AUTO 00000KT M03/M05 A2994 RMK AO1 SLP178
T10281050





000
SAUS45 KGGW 180249
MTRJDN
METAR KJDN 180248Z AUTO 16005KT M03/M06 A2994 RMK AO1 SLP179
T10331056 57006





000
SAUS45 KGGW 180149
MTRJDN
METAR KJDN 180148Z AUTO 15006KT M03/M06 A2996 RMK AO1 SLP183
T10331056





000
SAUS45 KGGW 180149
MTRJDN
METAR KJDN 180148Z AUTO 15006KT M03/M06 A2996 RMK AO1 SLP183
T10331056





000
SAUS45 KGGW 180049
MTRJDN
METAR KJDN 180048Z AUTO 13006KT M03/M06 A2995 RMK AO1 SLP183
T10331056





000
SAUS45 KGGW 172349
MTRJDN
METAR KJDN 172348Z AUTO 12006KT M03/M06 A2996 RMK AO1 SLP187
T10331056 11022 21039 53003





000
SAUS45 KGGW 172249
MTRJDN
METAR KJDN 172248Z AUTO 15007KT M03/M06 A2995 RMK AO1 SLP184
T10331056





000
SAUS45 KGGW 172149
MTRJDN
METAR KJDN 172148Z AUTO 13007KT M03/M06 A2995 RMK AO1 SLP183
T10331061





000
SAUS45 KGGW 172149
MTRJDN
METAR KJDN 172148Z AUTO 13007KT M03/M06 A2995 RMK AO1 SLP183
T10331061





000
SAUS45 KGGW 172049
MTRJDN
METAR KJDN 172048Z AUTO 14007KT M03/M06 A2995 RMK AO1 SLP183
T10281061 56015





000
SAUS45 KGGW 171949
MTRJDN
METAR KJDN 171948Z AUTO 16009KT M03/M06 A2996 RMK AO1 SLP185
T10331061





000
SAUS45 KGGW 171849
MTRJDN
METAR KJDN 171848Z AUTO 13008KT M03/M06 A2998 RMK AO1 SLP193
T10331061





000
SAUS45 KGGW 171749
MTRJDN
METAR KJDN 171748Z AUTO 13007KT M04/M07 A3000 RMK AO1 SLP200
T10391067 11039 21067 58005





000
SAUS45 KGGW 171649
MTRJDN
METAR KJDN 171648Z AUTO 15008KT M04/M07 A3002 RMK AO1 SLP207
T10441072





000
SAUS45 KGGW 171549
MTRJDN
METAR KJDN 171548Z AUTO 15007KT M06/M07 A3001 RMK AO1 SLP207
T10561072





000
SAUS45 KGGW 171549
MTRJDN
METAR KJDN 171548Z AUTO 15007KT M06/M07 A3001 RMK AO1 SLP207
T10561072





000
SAUS45 KGGW 171449
MTRJDN
METAR KJDN 171448Z AUTO 13006KT M06/M07 A3002 RMK AO1 SLP208
T10561072 56004





000
SAUS45 KGGW 171349
MTRJDN
METAR KJDN 171348Z AUTO 13006KT M06/M08 A3002 RMK AO1 SLP209
T10611078





000
SAUS45 KGGW 171250
MTRJDN
METAR KJDN 171248Z AUTO 14009KT M07/M08 A3002 RMK AO1 SLP210
T10671078





000
SAUS45 KGGW 171149
MTRJDN
METAR KJDN 171148Z AUTO 13008KT M07/M08 A3003 RMK AO1 SLP212
T10671078 11061 21067 56008





000
SAUS45 KGGW 171049
MTRJDN
METAR KJDN 171048Z AUTO 16009KT M07/M08 A3004 RMK AO1 SLP215
T10671078





000
SAUS45 KGGW 170949
MTRJDN
METAR KJDN 170948Z AUTO 14008KT M07/M08 A3004 RMK AO1 SLP216
T10671078





000
SAUS45 KGGW 170949
MTRJDN
METAR KJDN 170948Z AUTO 14008KT M07/M08 A3004 RMK AO1 SLP216
T10671078





000
SAUS45 KGGW 170849
MTRJDN
METAR KJDN 170848Z AUTO 15007KT M07/M08 A3005 RMK AO1 SLP220
T10671078 58013





000
SAUS45 KGGW 170849
MTRJDN
METAR KJDN 170848Z AUTO 15007KT M07/M08 A3005 RMK AO1 SLP220
T10671078 58013





000
SAUS45 KGGW 170749
MTRJDN
METAR KJDN 170748Z AUTO 17009KT M06/M07 A3007 RMK AO1 SLP227
T10611072





000
SAUS45 KGGW 170749
MTRJDN
METAR KJDN 170748Z AUTO 17009KT M06/M07 A3007 RMK AO1 SLP227
T10611072





000
SAUS45 KGGW 170649
MTRJDN
METAR KJDN 170648Z AUTO 14010KT M06/M07 A3008 RMK AO1 SLP231
T10611072 410501067





000
SAUS45 KGGW 170549
MTRJDN
METAR KJDN 170548Z AUTO 14011KT M07/M08 A3009 RMK AO1 SLP235
T10671078 11061 21067 55006





000
SAUS45 KGGW 170449
MTRJDN
METAR KJDN 170448Z AUTO 16010KT M07/M08 A3009 RMK AO1 SLP233
T10671078





000
SAUS45 KGGW 170449
MTRJDN
METAR KJDN 170448Z AUTO 16010KT M07/M08 A3009 RMK AO1 SLP233
T10671078





000
SAUS45 KGGW 170349
MTRJDN
METAR KJDN 170348Z AUTO 15014KT M07/M08 A3009 RMK AO1 SLP235
T10671078





000
SAUS45 KGGW 170349
MTRJDN
METAR KJDN 170348Z AUTO 15014KT M07/M08 A3009 RMK AO1 SLP235
T10671078





000
SAUS45 KGGW 170249
MTRJDN
METAR KJDN 170248Z AUTO 16010KT M07/M08 A3012 RMK AO1 SLP242
T10671083 58004





000
SAUS45 KGGW 170155
MTRJDN
NO CARRIER

RING

CONNECT 1200

LAXMTRNFG ALL
TTAA00 KNFG 170154
METAR KNFG 170154Z 00000KT 9SM BKN037 OVC060 13/11 A2998 RMK AO2
SLP152 T01330106 $





000
SAUS45 KGGW 170049
MTRJDN
METAR KJDN 170048Z AUTO 17011KT M07/M08 A3013 RMK AO1 SLP247
T10671083





000
SAUS45 KGGW 162349
MTRJDN
METAR KJDN 162348Z AUTO 12010KT M06/M08 A3013 RMK AO1 SLP245
T10611078 11050 21061 56004





000
SAUS45 KGGW 162249
MTRJDN
METAR KJDN 162248Z AUTO 16007KT M06/M08 A3013 RMK AO1 SLP247
T10561078





000
SAUS45 KGGW 162149
MTRJDN
METAR KJDN 162148Z AUTO 13009KT M06/M07 A3013 RMK AO1 SLP247
T10561072





000
SAUS45 KGGW 162049
MTRJDN
METAR KJDN 162048Z AUTO 17008KT M05/M07 A3014 RMK AO1 SLP248
T10501072 56019





000
SAUS45 KGGW 161950
MTRJDN
METAR KJDN 161948Z AUTO 16009KT M06/M08 A3015 RMK AO1 SLP252
T10561078





000
SAUS45 KGGW 161849
MTRJDN
METAR KJDN 161848Z AUTO 16010KT M06/M07 A3018 RMK AO1 SLP261
T10561072





000
SAUS45 KGGW 161749
MTRJDN
METAR KJDN 161748Z AUTO 16009KT M06/M07 A3020 RMK AO1 SLP271
T10611072 11050 21061 58001





000
SAUS45 KGGW 161649
MTRJDN
METAR KJDN 161648Z AUTO 15009KT M06/M07 A3021 RMK AO1 SLP275
T10611072





000
SAUS45 KGGW 161550
MTRJDN
METAR KJDN 161548Z AUTO 13012KT M06/M07 A3020 RMK AO1 SLP269
T10561072





000
SAUS45 KGGW 161449
MTRJDN
METAR KJDN 161448Z AUTO 14008KT M06/M07 A3020 RMK AO1 SLP270
T10561072 53000





000
SAUS45 KGGW 161349
MTRJDN
METAR KJDN 161348Z AUTO 14008KT M05/M07 A3020 RMK AO1 SLP267
T10501072





000
SAUS45 KGGW 161249
MTRJDN
METAR KJDN 161248Z AUTO 12008KT M06/M07 A3019 RMK AO1 SLP266
T10561072





000
SAUS45 KGGW 161149
MTRJDN
METAR KJDN 161148Z AUTO 14007KT M05/M07 A3020 RMK AO1 SLP268
T10501072 11050 21061 58010





000
SAUS45 KGGW 161049
MTRJDN
METAR KJDN 161048Z AUTO 17005KT M06/M08 A3023 RMK AO1 SLP278
T10611078





000
SAUS45 KGGW 160949
MTRJDN
METAR KJDN 160948Z AUTO 16005KT M06/M07 A3023 RMK AO1 SLP279
T10561072





000
SAUS45 KGGW 160949
MTRJDN
METAR KJDN 160948Z AUTO 16005KT M06/M07 A3023 RMK AO1 SLP279
T10561072





000
SAUS45 KGGW 160849
MTRJDN
METAR KJDN 160848Z AUTO 16007KT M06/M08 A3023 RMK AO1 SLP280
T10561078 58005





000
SAUS45 KGGW 160749
MTRJDN
METAR KJDN 160748Z AUTO 18007KT M05/M07 A3024 RMK AO1 SLP280
T10501072





000
SAUS45 KGGW 160649
MTRJDN
METAR KJDN 160648Z AUTO 14006KT M05/M07 A3025 RMK AO1 SLP284
T10501072 410331050





000
SAUS45 KGGW 160549
MTRJDN
METAR KJDN 160548Z AUTO 15007KT M05/M07 A3025 RMK AO1 SLP286
T10501072 11044 21050 55007





000
SAUS45 KGGW 160449
MTRJDN
METAR KJDN 160448Z AUTO 15005KT M05/M08 A3025 RMK AO1 SLP283
T10501078





000
SAUS45 KGGW 160349
MTRJDN
METAR KJDN 160348Z AUTO 24003KT M05/M08 A3027 RMK AO1 SLP291
T10501078





000
SAUS45 KGGW 160349
MTRJDN
METAR KJDN 160348Z AUTO 24003KT M05/M08 A3027 RMK AO1 SLP291
T10501078





    US Dept of Commerce
    National Oceanic and Atmospheric Administration
    National Weather Service
    1325 East West Highway
    Silver Spring, MD 20910
    Page Author: NWS Internet Services Team
Disclaimer
Information Quality
Credits
Glossary
Privacy Policy
Freedom of Information Act (FOIA)
About Us
Career Opportunities